sensor_id;sensor_type;location;lat;lon;timestamp;temperature;humidity
30385;DHT22;17181;51.002;4.096;2023-02-15T00:01:17;3.50;94.50
30385;DHT22;17181;51.002;4.096;2023-02-15T00:03:43;3.40;94.50
30385;DHT22;17181;51.002;4.096;2023-02-15T00:06:09;3.40;94.60
30385;DHT22;17181;51.002;4.096;2023-02-15T00:08:35;3.40;94.70
30385;DHT22;17181;51.002;4.096;2023-02-15T00:11:12;3.40;94.80
30385;DHT22;17181;51.002;4.096;2023-02-15T00:13:38;3.40;94.80
30385;DHT22;17181;51.002;4.096;2023-02-15T00:16:09;3.40;94.90
30385;DHT22;17181;51.002;4.096;2023-02-15T00:18:35;3.40;95.20
30385;DHT22;17181;51.002;4.096;2023-02-15T00:21:19;3.40;94.90
30385;DHT22;17181;51.002;4.096;2023-02-15T00:23:45;3.40;95.00
30385;DHT22;17181;51.002;4.096;2023-02-15T00:26:11;3.30;95.00
30385;DHT22;17181;51.002;4.096;2023-02-15T00:28:39;3.30;95.00
30385;DHT22;17181;51.002;4.096;2023-02-15T00:31:06;3.20;95.10
30385;DHT22;17181;51.002;4.096;2023-02-15T00:33:35;3.20;95.10
30385;DHT22;17181;51.002;4.096;2023-02-15T00:36:01;3.20;95.10
30385;DHT22;17181;51.002;4.096;2023-02-15T00:38:29;3.20;95.20
30385;DHT22;17181;51.002;4.096;2023-02-15T00:40:58;3.10;95.10
30385;DHT22;17181;51.002;4.096;2023-02-15T00:43:26;3.00;95.20
30385;DHT22;17181;51.002;4.096;2023-02-15T00:45:52;3.00;95.30
30385;DHT22;17181;51.002;4.096;2023-02-15T00:48:18;2.90;95.30
30385;DHT22;17181;51.002;4.096;2023-02-15T00:50:49;2.90;95.40
30385;DHT22;17181;51.002;4.096;2023-02-15T00:53:16;2.90;95.80
30385;DHT22;17181;51.002;4.096;2023-02-15T00:55:42;2.90;95.90
30385;DHT22;17181;51.002;4.096;2023-02-15T00:58:09;2.90;95.60
30385;DHT22;17181;51.002;4.096;2023-02-15T01:00:35;2.90;95.70
30385;DHT22;17181;51.002;4.096;2023-02-15T01:03:00;2.90;95.70
30385;DHT22;17181;51.002;4.096;2023-02-15T01:05:26;3.00;95.70
30385;DHT22;17181;51.002;4.096;2023-02-15T01:07:52;2.90;95.80
30385;DHT22;17181;51.002;4.096;2023-02-15T01:10:18;2.90;95.90
30385;DHT22;17181;51.002;4.096;2023-02-15T01:12:44;2.90;95.90
30385;DHT22;17181;51.002;4.096;2023-02-15T01:15:10;2.90;96.00
30385;DHT22;17181;51.002;4.096;2023-02-15T01:17:36;2.90;96.00
30385;DHT22;17181;51.002;4.096;2023-02-15T01:20:03;2.90;96.10
30385;DHT22;17181;51.002;4.096;2023-02-15T01:22:29;2.90;96.10
30385;DHT22;17181;51.002;4.096;2023-02-15T01:24:55;2.90;96.10
30385;DHT22;17181;51.002;4.096;2023-02-15T01:27:21;2.80;96.10
30385;DHT22;17181;51.002;4.096;2023-02-15T01:29:46;2.80;96.20
30385;DHT22;17181;51.002;4.096;2023-02-15T01:32:14;2.80;96.20
30385;DHT22;17181;51.002;4.096;2023-02-15T01:34:42;2.80;96.30
30385;DHT22;17181;51.002;4.096;2023-02-15T01:37:08;2.80;96.30
30385;DHT22;17181;51.002;4.096;2023-02-15T01:39:34;2.80;96.40
30385;DHT22;17181;51.002;4.096;2023-02-15T01:42:00;2.70;96.40
30385;DHT22;17181;51.002;4.096;2023-02-15T01:53:51;2.60;96.50
30385;DHT22;17181;51.002;4.096;2023-02-15T01:56:15;2.60;96.60
30385;DHT22;17181;51.002;4.096;2023-02-15T01:58:47;2.50;96.60
30385;DHT22;17181;51.002;4.096;2023-02-15T02:01:16;2.40;96.60
30385;DHT22;17181;51.002;4.096;2023-02-15T02:06:24;2.40;96.70
30385;DHT22;17181;51.002;4.096;2023-02-15T02:08:52;2.40;96.70
30385;DHT22;17181;51.002;4.096;2023-02-15T02:11:18;2.40;96.70
30385;DHT22;17181;51.002;4.096;2023-02-15T02:13:46;2.30;97.00
30385;DHT22;17181;51.002;4.096;2023-02-15T02:25:06;2.20;97.00
30385;DHT22;17181;51.002;4.096;2023-02-15T02:36:45;2.10;97.00
30385;DHT22;17181;51.002;4.096;2023-02-15T02:42:14;2.00;97.10
30385;DHT22;17181;51.002;4.096;2023-02-15T02:44:53;2.10;97.10
30385;DHT22;17181;51.002;4.096;2023-02-15T02:47:35;2.00;97.10
30385;DHT22;17181;51.002;4.096;2023-02-15T02:50:26;2.00;97.20
30385;DHT22;17181;51.002;4.096;2023-02-15T02:52:54;2.00;97.20
30385;DHT22;17181;51.002;4.096;2023-02-15T02:55:36;2.00;97.20
30385;DHT22;17181;51.002;4.096;2023-02-15T02:58:37;2.00;97.30
30385;DHT22;17181;51.002;4.096;2023-02-15T03:01:19;1.90;97.30
30385;DHT22;17181;51.002;4.096;2023-02-15T03:09:28;1.80;97.40
30385;DHT22;17181;51.002;4.096;2023-02-15T03:12:00;1.80;97.40
30385;DHT22;17181;51.002;4.096;2023-02-15T03:14:30;1.80;97.40
30385;DHT22;17181;51.002;4.096;2023-02-15T03:16:56;1.70;97.40
30385;DHT22;17181;51.002;4.096;2023-02-15T03:19:27;1.70;97.50
30385;DHT22;17181;51.002;4.096;2023-02-15T03:22:00;1.80;97.60
30385;DHT22;17181;51.002;4.096;2023-02-15T03:27:18;1.70;97.60
30385;DHT22;17181;51.002;4.096;2023-02-15T03:29:46;1.60;97.60
30385;DHT22;17181;51.002;4.096;2023-02-15T03:32:15;1.60;97.60
30385;DHT22;17181;51.002;4.096;2023-02-15T03:34:42;1.60;97.60
30385;DHT22;17181;51.002;4.096;2023-02-15T03:40:36;1.50;97.70
30385;DHT22;17181;51.002;4.096;2023-02-15T03:45:59;1.40;97.80
30385;DHT22;17181;51.002;4.096;2023-02-15T03:48:40;1.40;98.10
30385;DHT22;17181;51.002;4.096;2023-02-15T03:51:16;1.40;97.80
30385;DHT22;17181;51.002;4.096;2023-02-15T03:54:14;1.40;97.90
30385;DHT22;17181;51.002;4.096;2023-02-15T03:57:04;1.40;97.90
30385;DHT22;17181;51.002;4.096;2023-02-15T03:59:49;1.30;97.90
30385;DHT22;17181;51.002;4.096;2023-02-15T04:02:44;1.30;97.90
30385;DHT22;17181;51.002;4.096;2023-02-15T04:05:11;1.30;97.90
30385;DHT22;17181;51.002;4.096;2023-02-15T04:07:37;1.30;98.00
30385;DHT22;17181;51.002;4.096;2023-02-15T04:10:03;1.30;98.10
30385;DHT22;17181;51.002;4.096;2023-02-15T04:12:47;1.30;98.10
30385;DHT22;17181;51.002;4.096;2023-02-15T04:15:13;1.30;98.10
30385;DHT22;17181;51.002;4.096;2023-02-15T04:17:57;1.40;98.20
30385;DHT22;17181;51.002;4.096;2023-02-15T04:20:23;1.30;98.20
30385;DHT22;17181;51.002;4.096;2023-02-15T04:23:07;1.30;98.20
30385;DHT22;17181;51.002;4.096;2023-02-15T04:25:51;1.30;98.30
30385;DHT22;17181;51.002;4.096;2023-02-15T04:28:17;1.30;98.30
30385;DHT22;17181;51.002;4.096;2023-02-15T04:30:43;1.30;98.40
30385;DHT22;17181;51.002;4.096;2023-02-15T04:33:09;1.30;98.40
30385;DHT22;17181;51.002;4.096;2023-02-15T04:35:35;1.30;98.50
30385;DHT22;17181;51.002;4.096;2023-02-15T04:38:01;1.30;98.50
30385;DHT22;17181;51.002;4.096;2023-02-15T04:40:27;1.30;98.60
30385;DHT22;17181;51.002;4.096;2023-02-15T04:42:52;1.30;98.60
30385;DHT22;17181;51.002;4.096;2023-02-15T04:45:18;1.30;98.70
30385;DHT22;17181;51.002;4.096;2023-02-15T04:47:44;1.20;98.70
30385;DHT22;17181;51.002;4.096;2023-02-15T04:50:10;1.20;98.70
30385;DHT22;17181;51.002;4.096;2023-02-15T04:52:36;1.20;98.80
30385;DHT22;17181;51.002;4.096;2023-02-15T04:55:02;1.20;98.80
30385;DHT22;17181;51.002;4.096;2023-02-15T04:57:28;1.20;98.80
30385;DHT22;17181;51.002;4.096;2023-02-15T04:59:54;1.20;98.90
30385;DHT22;17181;51.002;4.096;2023-02-15T05:02:19;1.10;98.90
30385;DHT22;17181;51.002;4.096;2023-02-15T05:04:45;1.10;98.90
30385;DHT22;17181;51.002;4.096;2023-02-15T05:07:11;1.10;99.00
30385;DHT22;17181;51.002;4.096;2023-02-15T05:09:37;1.10;99.00
30385;DHT22;17181;51.002;4.096;2023-02-15T05:12:03;1.20;99.10
30385;DHT22;17181;51.002;4.096;2023-02-15T05:14:28;1.10;99.10
30385;DHT22;17181;51.002;4.096;2023-02-15T05:16:54;1.10;99.10
30385;DHT22;17181;51.002;4.096;2023-02-15T05:19:20;1.10;99.20
30385;DHT22;17181;51.002;4.096;2023-02-15T05:21:46;1.10;99.20
30385;DHT22;17181;51.002;4.096;2023-02-15T05:24:11;1.10;99.20
30385;DHT22;17181;51.002;4.096;2023-02-15T05:26:56;1.10;99.30
30385;DHT22;17181;51.002;4.096;2023-02-15T05:29:40;1.10;99.30
30385;DHT22;17181;51.002;4.096;2023-02-15T05:32:06;1.10;99.30
30385;DHT22;17181;51.002;4.096;2023-02-15T05:34:32;1.00;99.30
30385;DHT22;17181;51.002;4.096;2023-02-15T05:36:58;1.00;99.40
30385;DHT22;17181;51.002;4.096;2023-02-15T05:39:23;1.00;99.50
30385;DHT22;17181;51.002;4.096;2023-02-15T05:41:49;1.00;99.50
30385;DHT22;17181;51.002;4.096;2023-02-15T05:44:15;1.00;99.60
30385;DHT22;17181;51.002;4.096;2023-02-15T05:46:40;1.00;99.60
30385;DHT22;17181;51.002;4.096;2023-02-15T05:49:06;1.00;99.70
30385;DHT22;17181;51.002;4.096;2023-02-15T05:51:32;1.00;99.70
30385;DHT22;17181;51.002;4.096;2023-02-15T05:53:58;1.00;99.70
30385;DHT22;17181;51.002;4.096;2023-02-15T05:56:24;1.00;99.70
30385;DHT22;17181;51.002;4.096;2023-02-15T05:58:52;1.00;99.80
30385;DHT22;17181;51.002;4.096;2023-02-15T06:01:18;0.90;99.80
30385;DHT22;17181;51.002;4.096;2023-02-15T06:03:46;0.90;99.80
30385;DHT22;17181;51.002;4.096;2023-02-15T06:06:12;0.90;99.90
30385;DHT22;17181;51.002;4.096;2023-02-15T06:08:39;0.90;99.90
30385;DHT22;17181;51.002;4.096;2023-02-15T06:11:05;0.90;99.90
30385;DHT22;17181;51.002;4.096;2023-02-15T06:13:31;0.90;99.90
30385;DHT22;17181;51.002;4.096;2023-02-15T06:15:57;0.90;99.90
30385;DHT22;17181;51.002;4.096;2023-02-15T06:18:23;0.90;99.90
30385;DHT22;17181;51.002;4.096;2023-02-15T06:20:49;0.80;99.90
30385;DHT22;17181;51.002;4.096;2023-02-15T06:23:15;0.90;99.90
30385;DHT22;17181;51.002;4.096;2023-02-15T06:25:41;0.80;99.90
30385;DHT22;17181;51.002;4.096;2023-02-15T06:28:07;0.80;99.90
30385;DHT22;17181;51.002;4.096;2023-02-15T06:30:33;0.80;99.90
30385;DHT22;17181;51.002;4.096;2023-02-15T06:32:59;0.80;99.90
30385;DHT22;17181;51.002;4.096;2023-02-15T06:35:25;0.80;99.90
30385;DHT22;17181;51.002;4.096;2023-02-15T06:37:50;0.80;99.90
30385;DHT22;17181;51.002;4.096;2023-02-15T06:40:16;0.80;99.90
30385;DHT22;17181;51.002;4.096;2023-02-15T06:42:42;0.80;99.90
30385;DHT22;17181;51.002;4.096;2023-02-15T06:45:11;0.80;99.90
30385;DHT22;17181;51.002;4.096;2023-02-15T06:47:37;0.80;99.90
30385;DHT22;17181;51.002;4.096;2023-02-15T06:50:07;0.80;99.90
30385;DHT22;17181;51.002;4.096;2023-02-15T06:52:33;0.80;99.90
30385;DHT22;17181;51.002;4.096;2023-02-15T06:54:59;0.80;99.90
30385;DHT22;17181;51.002;4.096;2023-02-15T06:57:24;0.70;99.90
30385;DHT22;17181;51.002;4.096;2023-02-15T06:59:50;0.80;99.90
30385;DHT22;17181;51.002;4.096;2023-02-15T07:02:16;0.80;99.90
30385;DHT22;17181;51.002;4.096;2023-02-15T07:04:42;0.80;99.90
30385;DHT22;17181;51.002;4.096;2023-02-15T07:07:09;0.80;99.90
30385;DHT22;17181;51.002;4.096;2023-02-15T07:09:35;0.80;99.90
30385;DHT22;17181;51.002;4.096;2023-02-15T07:12:02;0.80;99.90
30385;DHT22;17181;51.002;4.096;2023-02-15T07:14:46;0.70;99.90
30385;DHT22;17181;51.002;4.096;2023-02-15T07:17:12;0.80;99.90
30385;DHT22;17181;51.002;4.096;2023-02-15T07:19:38;0.80;99.90
30385;DHT22;17181;51.002;4.096;2023-02-15T07:22:03;0.80;99.90
30385;DHT22;17181;51.002;4.096;2023-02-15T07:24:30;0.80;99.90
30385;DHT22;17181;51.002;4.096;2023-02-15T07:26:56;0.90;99.90
30385;DHT22;17181;51.002;4.096;2023-02-15T07:29:23;0.90;99.90
30385;DHT22;17181;51.002;4.096;2023-02-15T07:31:49;0.90;99.90
30385;DHT22;17181;51.002;4.096;2023-02-15T07:34:15;0.90;99.90
30385;DHT22;17181;51.002;4.096;2023-02-15T07:36:41;1.00;99.90
30385;DHT22;17181;51.002;4.096;2023-02-15T07:39:07;1.00;99.90
30385;DHT22;17181;51.002;4.096;2023-02-15T07:41:33;1.00;99.90
30385;DHT22;17181;51.002;4.096;2023-02-15T07:43:58;1.10;99.90
30385;DHT22;17181;51.002;4.096;2023-02-15T07:46:24;1.10;99.90
30385;DHT22;17181;51.002;4.096;2023-02-15T07:48:50;1.10;99.90
30385;DHT22;17181;51.002;4.096;2023-02-15T07:51:16;1.10;99.90
30385;DHT22;17181;51.002;4.096;2023-02-15T07:53:42;1.20;99.90
30385;DHT22;17181;51.002;4.096;2023-02-15T07:56:11;1.30;99.90
30385;DHT22;17181;51.002;4.096;2023-02-15T07:58:38;1.40;99.90
30385;DHT22;17181;51.002;4.096;2023-02-15T08:01:32;1.30;99.90
30385;DHT22;17181;51.002;4.096;2023-02-15T08:03:58;1.40;99.90
30385;DHT22;17181;51.002;4.096;2023-02-15T08:06:29;1.50;99.90
30385;DHT22;17181;51.002;4.096;2023-02-15T08:08:55;1.50;99.90
30385;DHT22;17181;51.002;4.096;2023-02-15T08:11:30;1.60;99.90
30385;DHT22;17181;51.002;4.096;2023-02-15T08:19:14;1.80;99.90
30385;DHT22;17181;51.002;4.096;2023-02-15T08:21:45;1.90;99.90
30385;DHT22;17181;51.002;4.096;2023-02-15T08:24:12;2.00;99.90
30385;DHT22;17181;51.002;4.096;2023-02-15T08:26:39;2.10;99.90
30385;DHT22;17181;51.002;4.096;2023-02-15T08:29:06;2.20;99.90
30385;DHT22;17181;51.002;4.096;2023-02-15T08:31:32;2.20;99.90
30385;DHT22;17181;51.002;4.096;2023-02-15T08:33:59;2.30;99.90
30385;DHT22;17181;51.002;4.096;2023-02-15T08:36:27;2.40;99.90
30385;DHT22;17181;51.002;4.096;2023-02-15T08:38:54;2.50;99.90
30385;DHT22;17181;51.002;4.096;2023-02-15T08:41:23;2.60;99.90
30385;DHT22;17181;51.002;4.096;2023-02-15T08:43:51;2.70;99.90
30385;DHT22;17181;51.002;4.096;2023-02-15T08:46:19;2.80;99.90
30385;DHT22;17181;51.002;4.096;2023-02-15T08:48:46;3.00;99.90
30385;DHT22;17181;51.002;4.096;2023-02-15T08:51:14;3.10;99.90
30385;DHT22;17181;51.002;4.096;2023-02-15T08:53:43;3.20;99.90
30385;DHT22;17181;51.002;4.096;2023-02-15T08:56:09;3.30;99.90
30385;DHT22;17181;51.002;4.096;2023-02-15T08:58:35;3.50;99.90
30385;DHT22;17181;51.002;4.096;2023-02-15T09:01:07;3.80;99.90
30385;DHT22;17181;51.002;4.096;2023-02-15T09:03:33;4.00;99.90
30385;DHT22;17181;51.002;4.096;2023-02-15T09:05:59;4.20;99.90
30385;DHT22;17181;51.002;4.096;2023-02-15T09:08:26;4.40;99.90
30385;DHT22;17181;51.002;4.096;2023-02-15T09:10:52;4.60;99.90
30385;DHT22;17181;51.002;4.096;2023-02-15T09:13:18;4.80;99.90
30385;DHT22;17181;51.002;4.096;2023-02-15T09:15:44;4.90;99.90
30385;DHT22;17181;51.002;4.096;2023-02-15T09:18:09;5.10;99.90
30385;DHT22;17181;51.002;4.096;2023-02-15T09:20:36;5.30;99.90
30385;DHT22;17181;51.002;4.096;2023-02-15T09:23:02;5.40;99.90
30385;DHT22;17181;51.002;4.096;2023-02-15T09:25:28;5.50;99.90
30385;DHT22;17181;51.002;4.096;2023-02-15T09:27:54;5.70;99.90
30385;DHT22;17181;51.002;4.096;2023-02-15T09:30:21;5.90;99.90
30385;DHT22;17181;51.002;4.096;2023-02-15T09:32:47;6.10;99.90
30385;DHT22;17181;51.002;4.096;2023-02-15T09:35:13;6.20;99.90
30385;DHT22;17181;51.002;4.096;2023-02-15T09:37:39;6.30;99.90
30385;DHT22;17181;51.002;4.096;2023-02-15T09:40:05;6.50;99.90
30385;DHT22;17181;51.002;4.096;2023-02-15T09:42:38;6.60;99.90
30385;DHT22;17181;51.002;4.096;2023-02-15T09:59:07;7.30;99.90
30385;DHT22;17181;51.002;4.096;2023-02-15T10:21:19;8.20;99.90
30385;DHT22;17181;51.002;4.096;2023-02-15T10:26:19;8.40;99.90
30385;DHT22;17181;51.002;4.096;2023-02-15T10:28:51;8.50;99.90
30385;DHT22;17181;51.002;4.096;2023-02-15T10:34:24;8.80;99.90
30385;DHT22;17181;51.002;4.096;2023-02-15T10:48:15;9.30;99.90
30385;DHT22;17181;51.002;4.096;2023-02-15T10:50:56;9.50;99.90
30385;DHT22;17181;51.002;4.096;2023-02-15T11:07:40;10.20;99.90
30385;DHT22;17181;51.002;4.096;2023-02-15T11:12:45;10.20;99.90
30385;DHT22;17181;51.002;4.096;2023-02-15T11:15:34;10.20;99.90
30385;DHT22;17181;51.002;4.096;2023-02-15T11:21:17;10.30;99.90
30385;DHT22;17181;51.002;4.096;2023-02-15T11:23:46;10.30;99.90
30385;DHT22;17181;51.002;4.096;2023-02-15T11:26:32;10.30;99.90
30385;DHT22;17181;51.002;4.096;2023-02-15T11:29:04;10.30;99.90
30385;DHT22;17181;51.002;4.096;2023-02-15T11:31:42;10.40;99.90
30385;DHT22;17181;51.002;4.096;2023-02-15T11:34:58;10.40;99.90
30385;DHT22;17181;51.002;4.096;2023-02-15T11:37:11;10.50;99.90
30385;DHT22;17181;51.002;4.096;2023-02-15T11:39:38;10.50;99.90
30385;DHT22;17181;51.002;4.096;2023-02-15T11:42:14;10.60;99.90
30385;DHT22;17181;51.002;4.096;2023-02-15T11:44:52;10.60;99.90
30385;DHT22;17181;51.002;4.096;2023-02-15T11:47:22;10.70;99.90
30385;DHT22;17181;51.002;4.096;2023-02-15T11:49:48;10.80;99.90
30385;DHT22;17181;51.002;4.096;2023-02-15T11:52:16;10.80;99.90
30385;DHT22;17181;51.002;4.096;2023-02-15T11:54:47;11.00;99.90
30385;DHT22;17181;51.002;4.096;2023-02-15T12:00:15;11.00;99.90
30385;DHT22;17181;51.002;4.096;2023-02-15T12:02:49;11.20;99.90
30385;DHT22;17181;51.002;4.096;2023-02-15T12:05:18;11.20;99.90
30385;DHT22;17181;51.002;4.096;2023-02-15T12:07:53;11.30;99.90
30385;DHT22;17181;51.002;4.096;2023-02-15T12:10:28;11.30;99.90
30385;DHT22;17181;51.002;4.096;2023-02-15T12:13:10;11.40;99.90
30385;DHT22;17181;51.002;4.096;2023-02-15T12:15:36;11.40;99.90
30385;DHT22;17181;51.002;4.096;2023-02-15T12:18:03;11.40;99.90
30385;DHT22;17181;51.002;4.096;2023-02-15T12:20:32;11.50;99.90
30385;DHT22;17181;51.002;4.096;2023-02-15T12:23:01;11.60;99.90
30385;DHT22;17181;51.002;4.096;2023-02-15T12:28:00;11.70;99.90
30385;DHT22;17181;51.002;4.096;2023-02-15T12:30:31;11.70;99.80
30385;DHT22;17181;51.002;4.096;2023-02-15T12:33:19;11.80;99.80
30385;DHT22;17181;51.002;4.096;2023-02-15T12:35:47;11.90;99.50
30385;DHT22;17181;51.002;4.096;2023-02-15T12:40:41;12.10;99.20
30385;DHT22;17181;51.002;4.096;2023-02-15T12:43:35;12.10;99.20
30385;DHT22;17181;51.002;4.096;2023-02-15T12:46:24;12.20;99.00
30385;DHT22;17181;51.002;4.096;2023-02-15T12:49:06;12.30;98.90
30385;DHT22;17181;51.002;4.096;2023-02-15T12:51:49;12.50;98.70
30385;DHT22;17181;51.002;4.096;2023-02-15T12:54:41;12.60;98.30
30385;DHT22;17181;51.002;4.096;2023-02-15T13:02:36;12.90;97.80
30385;DHT22;17181;51.002;4.096;2023-02-15T13:07:48;13.00;97.50
30385;DHT22;17181;51.002;4.096;2023-02-15T13:13:31;13.10;97.30
30385;DHT22;17181;51.002;4.096;2023-02-15T13:16:02;13.20;97.20
30385;DHT22;17181;51.002;4.096;2023-02-15T13:18:38;13.20;97.10
30385;DHT22;17181;51.002;4.096;2023-02-15T13:21:10;13.30;96.70
30385;DHT22;17181;51.002;4.096;2023-02-15T13:23:37;13.30;96.50
30385;DHT22;17181;51.002;4.096;2023-02-15T13:26:08;13.40;96.50
30385;DHT22;17181;51.002;4.096;2023-02-15T13:28:44;13.40;96.40
30385;DHT22;17181;51.002;4.096;2023-02-15T13:31:18;13.50;96.20
30385;DHT22;17181;51.002;4.096;2023-02-15T13:34:11;13.50;96.30
30385;DHT22;17181;51.002;4.096;2023-02-15T13:36:54;13.60;96.10
30385;DHT22;17181;51.002;4.096;2023-02-15T13:39:42;13.70;96.30
30385;DHT22;17181;51.002;4.096;2023-02-15T13:45:21;13.80;95.90
30385;DHT22;17181;51.002;4.096;2023-02-15T13:50:55;13.90;95.50
30385;DHT22;17181;51.002;4.096;2023-02-15T13:55:54;14.00;95.50
30385;DHT22;17181;51.002;4.096;2023-02-15T14:10:29;14.30;95.80
30385;DHT22;17181;51.002;4.096;2023-02-15T14:19:13;14.60;94.70
30385;DHT22;17181;51.002;4.096;2023-02-15T14:21:50;14.90;94.60
30385;DHT22;17181;51.002;4.096;2023-02-15T14:24:29;15.10;93.70
30385;DHT22;17181;51.002;4.096;2023-02-15T14:27:26;15.40;94.20
30385;DHT22;17181;51.002;4.096;2023-02-15T14:30:13;15.90;94.30
30385;DHT22;17181;51.002;4.096;2023-02-15T14:32:43;16.20;94.10
30385;DHT22;17181;51.002;4.096;2023-02-15T14:35:19;16.60;92.70
30385;DHT22;17181;51.002;4.096;2023-02-15T14:49:42;17.30;90.50
30385;DHT22;17181;51.002;4.096;2023-02-15T15:02:23;17.70;87.10
30385;DHT22;17181;51.002;4.096;2023-02-15T15:12:52;17.60;85.10
30385;DHT22;17181;51.002;4.096;2023-02-15T15:18:10;17.60;84.10
30385;DHT22;17181;51.002;4.096;2023-02-15T15:20:55;17.60;83.50
30385;DHT22;17181;51.002;4.096;2023-02-15T15:25:57;17.30;81.90
30385;DHT22;17181;51.002;4.096;2023-02-15T15:34:12;16.40;82.80
30385;DHT22;17181;51.002;4.096;2023-02-15T15:42:49;15.70;83.80
30385;DHT22;17181;51.002;4.096;2023-02-15T15:48:30;15.30;84.50
30385;DHT22;17181;51.002;4.096;2023-02-15T15:51:00;15.20;85.30
30385;DHT22;17181;51.002;4.096;2023-02-15T15:53:29;15.00;84.90
30385;DHT22;17181;51.002;4.096;2023-02-15T15:56:10;14.80;85.10
30385;DHT22;17181;51.002;4.096;2023-02-15T15:58:43;14.70;85.50
30385;DHT22;17181;51.002;4.096;2023-02-15T16:01:10;14.60;85.80
30385;DHT22;17181;51.002;4.096;2023-02-15T16:03:49;14.50;86.10
30385;DHT22;17181;51.002;4.096;2023-02-15T16:08:52;14.30;86.50
30385;DHT22;17181;51.002;4.096;2023-02-15T16:11:27;14.30;86.80
30385;DHT22;17181;51.002;4.096;2023-02-15T16:13:54;14.20;87.00
30385;DHT22;17181;51.002;4.096;2023-02-15T16:16:23;14.10;87.30
30385;DHT22;17181;51.002;4.096;2023-02-15T16:18:50;14.00;87.60
30385;DHT22;17181;51.002;4.096;2023-02-15T16:21:23;13.90;88.00
30385;DHT22;17181;51.002;4.096;2023-02-15T16:26:53;13.80;88.40
30385;DHT22;17181;51.002;4.096;2023-02-15T16:29:32;13.70;88.70
30385;DHT22;17181;51.002;4.096;2023-02-15T16:32:26;13.80;89.20
30385;DHT22;17181;51.002;4.096;2023-02-15T16:35:02;13.90;89.40
30385;DHT22;17181;51.002;4.096;2023-02-15T16:37:34;14.00;89.40
30385;DHT22;17181;51.002;4.096;2023-02-15T16:40:00;14.00;89.10
30385;DHT22;17181;51.002;4.096;2023-02-15T16:42:26;13.90;88.90
30385;DHT22;17181;51.002;4.096;2023-02-15T16:45:00;13.80;89.00
30385;DHT22;17181;51.002;4.096;2023-02-15T16:47:30;13.70;89.20
30385;DHT22;17181;51.002;4.096;2023-02-15T16:49:59;13.50;89.20
30385;DHT22;17181;51.002;4.096;2023-02-15T16:52:27;13.40;89.70
30385;DHT22;17181;51.002;4.096;2023-02-15T16:54:58;13.20;89.90
30385;DHT22;17181;51.002;4.096;2023-02-15T16:57:28;13.10;90.00
30385;DHT22;17181;51.002;4.096;2023-02-15T16:59:59;13.00;90.10
30385;DHT22;17181;51.002;4.096;2023-02-15T17:02:28;12.80;90.20
30385;DHT22;17181;51.002;4.096;2023-02-15T17:05:13;12.80;90.40
30385;DHT22;17181;51.002;4.096;2023-02-15T17:07:48;12.70;90.50
30385;DHT22;17181;51.002;4.096;2023-02-15T17:13:20;12.50;90.80
30385;DHT22;17181;51.002;4.096;2023-02-15T17:18:44;12.30;91.10
30385;DHT22;17181;51.002;4.096;2023-02-15T17:21:18;12.20;91.30
30385;DHT22;17181;51.002;4.096;2023-02-15T17:23:50;12.20;91.60
30385;DHT22;17181;51.002;4.096;2023-02-15T17:26:21;12.10;91.70
30385;DHT22;17181;51.002;4.096;2023-02-15T17:28:50;12.10;91.90
30385;DHT22;17181;51.002;4.096;2023-02-15T17:31:18;12.00;92.00
30385;DHT22;17181;51.002;4.096;2023-02-15T17:33:45;12.00;92.20
30385;DHT22;17181;51.002;4.096;2023-02-15T17:36:19;11.90;92.40
30385;DHT22;17181;51.002;4.096;2023-02-15T17:41:26;11.80;92.60
30385;DHT22;17181;51.002;4.096;2023-02-15T17:43:52;11.80;92.80
30385;DHT22;17181;51.002;4.096;2023-02-15T17:46:18;11.70;92.90
30385;DHT22;17181;51.002;4.096;2023-02-15T17:48:49;11.70;93.20
30385;DHT22;17181;51.002;4.096;2023-02-15T17:51:15;11.70;93.40
30385;DHT22;17181;51.002;4.096;2023-02-15T17:53:42;11.60;93.70
30385;DHT22;17181;51.002;4.096;2023-02-15T17:56:27;11.50;93.90
30385;DHT22;17181;51.002;4.096;2023-02-15T17:58:53;11.50;94.10
30385;DHT22;17181;51.002;4.096;2023-02-15T18:01:20;11.60;94.40
30385;DHT22;17181;51.002;4.096;2023-02-15T18:04:08;11.50;94.80
30385;DHT22;17181;51.002;4.096;2023-02-15T18:06:53;11.50;95.10
30385;DHT22;17181;51.002;4.096;2023-02-15T18:09:38;11.40;95.30
30385;DHT22;17181;51.002;4.096;2023-02-15T18:12:30;11.40;95.50
30385;DHT22;17181;51.002;4.096;2023-02-15T18:14:56;11.40;95.80
30385;DHT22;17181;51.002;4.096;2023-02-15T18:17:35;11.30;95.90
30385;DHT22;17181;51.002;4.096;2023-02-15T18:20:05;11.30;96.00
30385;DHT22;17181;51.002;4.096;2023-02-15T18:22:32;11.30;96.30
30385;DHT22;17181;51.002;4.096;2023-02-15T18:24:58;11.20;96.40
30385;DHT22;17181;51.002;4.096;2023-02-15T18:27:24;11.20;96.40
30385;DHT22;17181;51.002;4.096;2023-02-15T18:29:49;11.20;96.60
30385;DHT22;17181;51.002;4.096;2023-02-15T18:32:21;11.20;96.70
30385;DHT22;17181;51.002;4.096;2023-02-15T18:34:49;11.10;97.00
30385;DHT22;17181;51.002;4.096;2023-02-15T18:37:18;11.10;97.10
30385;DHT22;17181;51.002;4.096;2023-02-15T18:39:49;11.10;97.20
30385;DHT22;17181;51.002;4.096;2023-02-15T18:44:59;11.00;97.20
30385;DHT22;17181;51.002;4.096;2023-02-15T18:47:27;10.90;97.20
30385;DHT22;17181;51.002;4.096;2023-02-15T18:49:53;10.90;97.30
30385;DHT22;17181;51.002;4.096;2023-02-15T18:52:22;10.80;97.30
30385;DHT22;17181;51.002;4.096;2023-02-15T18:54:57;10.80;97.30
30385;DHT22;17181;51.002;4.096;2023-02-15T18:57:24;10.80;97.30
30385;DHT22;17181;51.002;4.096;2023-02-15T18:59:51;10.70;97.40
30385;DHT22;17181;51.002;4.096;2023-02-15T19:02:17;10.70;97.60
30385;DHT22;17181;51.002;4.096;2023-02-15T19:04:44;10.70;97.80
30385;DHT22;17181;51.002;4.096;2023-02-15T19:07:24;10.60;97.90
30385;DHT22;17181;51.002;4.096;2023-02-15T19:09:55;10.60;98.20
30385;DHT22;17181;51.002;4.096;2023-02-15T19:12:21;10.60;98.20
30385;DHT22;17181;51.002;4.096;2023-02-15T19:14:47;10.50;98.30
30385;DHT22;17181;51.002;4.096;2023-02-15T19:17:17;10.50;98.40
30385;DHT22;17181;51.002;4.096;2023-02-15T19:19:44;10.40;98.40
30385;DHT22;17181;51.002;4.096;2023-02-15T19:22:39;10.40;98.40
30385;DHT22;17181;51.002;4.096;2023-02-15T19:25:05;10.40;98.40
30385;DHT22;17181;51.002;4.096;2023-02-15T19:27:35;10.30;98.30
30385;DHT22;17181;51.002;4.096;2023-02-15T19:30:13;10.30;98.30
30385;DHT22;17181;51.002;4.096;2023-02-15T19:32:40;10.30;98.30
30385;DHT22;17181;51.002;4.096;2023-02-15T19:35:13;10.20;98.20
30385;DHT22;17181;51.002;4.096;2023-02-15T19:37:40;10.20;98.20
30385;DHT22;17181;51.002;4.096;2023-02-15T19:40:36;10.10;98.20
30385;DHT22;17181;51.002;4.096;2023-02-15T19:43:02;10.10;98.20
30385;DHT22;17181;51.002;4.096;2023-02-15T19:45:30;10.00;98.30
30385;DHT22;17181;51.002;4.096;2023-02-15T19:47:58;10.00;98.50
30385;DHT22;17181;51.002;4.096;2023-02-15T19:50:27;9.90;98.50
30385;DHT22;17181;51.002;4.096;2023-02-15T19:52:54;9.90;98.80
30385;DHT22;17181;51.002;4.096;2023-02-15T19:55:31;9.80;98.80
30385;DHT22;17181;51.002;4.096;2023-02-15T19:57:58;9.80;99.00